createdAt,value
2022-08-09T00:00:00.441Z,0.00
2022-08-09T00:02:29.055Z,0.10
2022-08-09T00:05:03.190Z,0.10
2022-08-09T00:07:44.897Z,0.10
2022-08-09T00:10:17.922Z,0.08
2022-08-09T00:12:45.599Z,0.10
2022-08-09T00:15:14.659Z,0.10
2022-08-09T00:18:06.309Z,0.10
2022-08-09T00:20:28.091Z,0.10
2022-08-09T00:22:58.293Z,0.10
2022-08-09T00:25:34.439Z,0.00
2022-08-09T00:28:04.114Z,0.10
2022-08-09T00:30:31.207Z,0.10
2022-08-09T00:32:57.970Z,0.10
2022-08-09T00:35:24.667Z,0.10
2022-08-09T00:37:51.640Z,0.10
2022-08-09T00:40:19.731Z,0.10
2022-08-09T00:44:19.480Z,0.10
2022-08-09T00:45:34.818Z,0.10
2022-08-09T00:48:03.982Z,0.00
2022-08-09T00:50:32.369Z,0.10
2022-08-09T00:52:59.967Z,0.00
2022-08-09T00:56:04.622Z,0.00
2022-08-09T00:58:25.533Z,0.00
2022-08-09T01:00:59.045Z,0.00
2022-08-09T01:03:33.364Z,0.00
2022-08-09T01:06:53.560Z,0.08
2022-08-09T01:09:57.369Z,0.00
2022-08-09T01:12:41.641Z,0.00
2022-08-09T01:15:16.935Z,0.05
2022-08-09T01:17:50.153Z,0.00
2022-08-09T01:20:36.267Z,0.10
2022-08-09T01:24:02.558Z,0.03
2022-08-09T01:26:40.951Z,0.08
2022-08-09T01:29:10.444Z,0.00
2022-08-09T01:32:31.214Z,0.03
2022-08-09T01:34:34.578Z,0.10
2022-08-09T01:37:08.728Z,0.10
2022-08-09T01:39:38.218Z,0.10
2022-08-09T01:42:11.244Z,0.00
2022-08-09T01:44:41.287Z,0.00
2022-08-09T01:47:11.738Z,0.03
2022-08-09T01:49:39.865Z,0.10
2022-08-09T01:52:14.595Z,0.10
2022-08-09T01:55:00.793Z,0.10
2022-08-09T01:57:40.064Z,0.00
2022-08-09T02:00:34.520Z,0.00
2022-08-09T02:03:02.965Z,0.00
2022-08-09T02:05:38.223Z,0.10
2022-08-09T02:08:39.435Z,0.00
2022-08-09T02:11:17.142Z,0.00
2022-08-09T02:13:55.488Z,0.00
2022-08-09T02:16:59.077Z,0.10
2022-08-09T02:19:22.838Z,0.08
2022-08-09T02:21:55.530Z,0.00
2022-08-09T02:24:26.751Z,0.05
2022-08-09T02:26:58.689Z,0.00
2022-08-09T02:32:01.061Z,0.00
2022-08-09T02:34:41.409Z,0.00
2022-08-09T02:37:24.102Z,0.00
2022-08-09T02:40:10.328Z,0.10
2022-08-09T02:42:39.713Z,0.00
2022-08-09T02:45:16.649Z,0.10
2022-08-09T02:47:59.152Z,0.10
2022-08-09T02:50:31.072Z,0.05
2022-08-09T02:53:01.628Z,0.10
2022-08-09T02:55:39.424Z,0.10
2022-08-09T02:58:36.476Z,0.10
2022-08-09T03:01:06.407Z,0.00
2022-08-09T03:04:12.894Z,0.10
2022-08-09T03:06:27.566Z,0.00
2022-08-09T03:08:55.560Z,0.10
2022-08-09T03:12:04.649Z,0.00
2022-08-09T03:14:11.758Z,0.00
2022-08-09T03:16:42.046Z,0.10
2022-08-09T03:19:16.708Z,0.00
2022-08-09T03:21:59.968Z,0.10
2022-08-09T03:24:31.420Z,0.00
2022-08-09T03:27:10.856Z,0.00
2022-08-09T03:29:43.205Z,0.00
2022-08-09T03:32:26.227Z,0.03
2022-08-09T03:34:54.106Z,0.10
2022-08-09T03:37:56.589Z,0.10
2022-08-09T03:40:13.130Z,0.10
2022-08-09T03:42:43.149Z,0.10
2022-08-09T03:45:11.189Z,0.10
2022-08-09T03:47:41.815Z,0.10
2022-08-09T03:50:12.449Z,0.10
2022-08-09T03:52:42.502Z,0.05
2022-08-09T03:55:10.879Z,0.10
2022-08-09T04:00:25.914Z,0.10
2022-08-09T04:02:54.501Z,0.10
2022-08-09T04:05:27.388Z,0.10
2022-08-09T04:07:57.157Z,0.00
2022-08-09T04:10:28.879Z,0.10
2022-08-09T04:13:00.830Z,0.10
2022-08-09T04:15:42.807Z,0.00
2022-08-09T04:18:16.639Z,0.10
2022-08-09T04:20:45.930Z,0.10
2022-08-09T04:23:16.837Z,0.10
2022-08-09T04:25:43.643Z,0.10
2022-08-09T04:28:10.211Z,0.00
2022-08-09T04:30:39.096Z,0.10
2022-08-09T04:33:11.482Z,0.10
2022-08-09T04:35:40.676Z,0.00
2022-08-09T04:38:09.227Z,0.10
2022-08-09T04:40:54.165Z,0.10
2022-08-09T04:43:23.083Z,0.10
2022-08-09T04:45:53.473Z,0.10
2022-08-09T04:48:21.366Z,0.05
2022-08-09T04:50:50.603Z,0.10
2022-08-09T04:53:17.463Z,0.10
2022-08-09T04:55:57.965Z,0.10
2022-08-09T04:58:25.823Z,0.10
2022-08-09T05:00:54.305Z,0.10
2022-08-09T05:03:41.227Z,0.00
2022-08-09T05:06:09.165Z,0.10
2022-08-09T05:08:36.242Z,0.10
2022-08-09T05:11:03.510Z,0.10
2022-08-09T05:13:38.683Z,0.10
2022-08-09T05:16:10.103Z,0.10
2022-08-09T05:18:55.384Z,0.10
2022-08-09T05:21:24.859Z,0.10
2022-08-09T05:24:00.941Z,0.10
2022-08-09T05:26:36.702Z,0.10
2022-08-09T05:29:04.511Z,0.10
2022-08-09T05:31:45.019Z,0.10
2022-08-09T05:34:16.970Z,0.10
2022-08-09T05:36:47.242Z,0.10
2022-08-09T05:39:29.482Z,0.10
2022-08-09T05:42:02.859Z,0.10
2022-08-09T05:44:32.809Z,0.10
2022-08-09T05:47:00.417Z,0.10
2022-08-09T05:50:24.461Z,0.10
2022-08-09T05:52:14.153Z,0.10
2022-08-09T05:54:42.022Z,0.10
2022-08-09T05:57:12.727Z,0.10
2022-08-09T05:59:44.082Z,0.30
2022-08-09T06:02:11.837Z,0.20
2022-08-09T06:04:44.696Z,0.10
2022-08-09T06:07:21.536Z,0.10
2022-08-09T06:09:54.737Z,0.30
2022-08-09T06:12:29.812Z,0.20
2022-08-09T06:15:00.701Z,0.30
2022-08-09T06:17:27.913Z,0.30
2022-08-09T06:20:07.971Z,0.50
2022-08-09T06:22:34.938Z,0.40
2022-08-09T06:25:01.858Z,0.40
2022-08-09T06:27:42.718Z,0.40
2022-08-09T06:30:16.251Z,0.40
2022-08-09T06:32:58.926Z,0.60
2022-08-09T06:35:56.548Z,0.40
2022-08-09T06:38:18.064Z,0.40
2022-08-09T06:40:45.990Z,0.45
2022-08-09T06:43:13.614Z,0.50
2022-08-09T06:46:06.626Z,0.60
2022-08-09T06:48:31.017Z,0.43
2022-08-09T06:50:59.900Z,0.60
2022-08-09T06:53:27.603Z,0.40
2022-08-09T06:56:05.898Z,0.22
2022-08-09T07:00:47.221Z,0.20
2022-08-09T07:01:19.340Z,0.17
2022-08-09T07:03:53.141Z,0.20
2022-08-09T07:06:20.870Z,0.50
2022-08-09T07:08:49.769Z,0.50
2022-08-09T07:11:23.822Z,0.60
2022-08-09T07:14:05.029Z,0.60
2022-08-09T07:16:41.316Z,0.60
2022-08-09T07:19:23.070Z,0.70
2022-08-09T07:21:57.767Z,0.57
2022-08-09T07:24:32.143Z,0.60
2022-08-09T07:27:11.062Z,0.60
2022-08-09T07:29:57.024Z,0.40
2022-08-09T07:32:32.318Z,0.50
2022-08-09T07:35:02.854Z,0.60
2022-08-09T07:37:43.811Z,0.60
2022-08-09T07:40:18.520Z,0.60
2022-08-09T07:42:55.798Z,0.70
2022-08-09T07:45:39.159Z,0.90
2022-08-09T07:48:25.698Z,0.80
2022-08-09T07:51:09.776Z,1.00
2022-08-09T07:54:05.022Z,1.10
2022-08-09T07:56:28.683Z,1.10
2022-08-09T07:58:59.513Z,1.20
2022-08-09T08:01:34.083Z,1.10
2022-08-09T08:04:04.596Z,1.20
2022-08-09T08:06:37.543Z,1.30
2022-08-09T08:09:35.585Z,1.20
2022-08-09T08:12:24.693Z,1.15
2022-08-09T08:14:54.819Z,1.20
2022-08-09T08:17:24.831Z,1.10
2022-08-09T08:20:12.962Z,1.30
2022-08-09T08:22:40.518Z,1.20
2022-08-09T08:25:09.520Z,1.00
2022-08-09T08:27:41.166Z,0.90
2022-08-09T08:30:11.821Z,0.95
2022-08-09T08:32:41.481Z,0.80
2022-08-09T08:35:22.532Z,0.80
2022-08-09T08:38:02.009Z,0.93
2022-08-09T08:40:35.910Z,0.90
2022-08-09T08:43:08.811Z,0.90
2022-08-09T08:46:10.279Z,1.02
2022-08-09T08:48:51.181Z,1.30
2022-08-09T08:51:19.031Z,1.20
2022-08-09T08:54:02.609Z,1.33
2022-08-09T08:56:34.163Z,1.30
2022-08-09T08:59:07.804Z,1.30
2022-08-09T09:01:53.455Z,1.40
2022-08-09T09:04:29.737Z,1.30
2022-08-09T09:07:08.367Z,1.23
2022-08-09T09:09:58.300Z,1.00
2022-08-09T09:12:29.055Z,0.90
2022-08-09T09:15:00.035Z,0.90
2022-08-09T09:17:48.413Z,0.90
2022-08-09T09:20:15.430Z,0.90
2022-08-09T09:23:01.729Z,0.80
2022-08-09T09:26:01.536Z,0.80
2022-08-09T09:28:21.374Z,0.70
2022-08-09T09:31:17.527Z,0.50
2022-08-09T09:34:18.165Z,0.50
2022-08-09T09:36:51.113Z,0.32
2022-08-09T09:39:23.290Z,0.40
2022-08-09T09:41:50.952Z,0.30
2022-08-09T09:44:31.729Z,0.60
2022-08-09T09:50:07.229Z,0.30
2022-08-09T09:52:36.675Z,0.20
2022-08-09T09:55:27.713Z,0.30
2022-08-09T09:58:16.647Z,0.10
2022-08-09T10:00:55.714Z,0.10
2022-08-09T10:03:57.713Z,0.20
2022-08-09T10:06:42.932Z,0.45
2022-08-09T10:09:22.724Z,0.38
2022-08-09T10:12:12.934Z,0.50
2022-08-09T10:14:50.035Z,0.57
2022-08-09T10:17:40.203Z,0.60
2022-08-09T10:20:27.543Z,0.50
2022-08-09T10:23:14.109Z,0.50
2022-08-09T10:26:06.836Z,0.40
2022-08-09T10:28:33.868Z,0.50
2022-08-09T10:34:18.847Z,0.40
2022-08-09T10:36:35.662Z,0.40
2022-08-09T10:39:02.471Z,0.30
2022-08-09T10:41:29.090Z,0.40
2022-08-09T10:43:59.512Z,0.20
2022-08-09T10:46:31.250Z,0.32
2022-08-09T10:49:13.369Z,0.20
2022-08-09T10:52:08.489Z,0.10
2022-08-09T10:54:35.285Z,0.20
2022-08-09T10:57:16.690Z,0.10
2022-08-09T10:59:58.099Z,0.10
2022-08-09T11:03:13.390Z,0.10
2022-08-09T11:05:31.137Z,0.10
2022-08-09T11:08:47.335Z,0.10
2022-08-09T11:11:18.909Z,0.10
2022-08-09T11:13:53.684Z,0.10
2022-08-09T11:16:38.526Z,0.10
2022-08-09T11:19:09.570Z,0.10
2022-08-09T11:21:57.322Z,0.10
2022-08-09T11:25:09.856Z,0.10
2022-08-09T11:28:02.735Z,0.10
2022-08-09T11:30:32.677Z,0.10
2022-08-09T11:33:01.388Z,0.00
2022-08-09T11:35:49.288Z,0.10
2022-08-09T11:38:34.761Z,0.10
2022-08-09T11:41:37.651Z,0.10
2022-08-09T11:44:05.808Z,0.10
2022-08-09T11:46:52.863Z,0.10
2022-08-09T11:49:28.117Z,0.10
2022-08-09T11:53:02.355Z,0.10
2022-08-09T11:55:34.898Z,0.10
2022-08-09T11:58:18.418Z,0.10
2022-08-09T12:00:52.746Z,0.10
2022-08-09T12:03:55.833Z,0.10
2022-08-09T12:06:13.100Z,0.10
2022-08-09T12:08:47.790Z,0.20
2022-08-09T12:11:17.132Z,0.10
2022-08-09T12:14:11.103Z,0.10
2022-08-09T12:16:40.281Z,0.20
2022-08-09T12:19:09.821Z,0.20
2022-08-09T12:24:24.069Z,0.10
2022-08-09T12:29:14.404Z,0.10
2022-08-09T12:29:44.586Z,0.20
2022-08-09T12:32:26.047Z,0.10
2022-08-09T12:34:59.588Z,0.20
2022-08-09T12:37:50.164Z,0.10
2022-08-09T12:40:20.513Z,0.20
2022-08-09T12:42:50.214Z,0.10
2022-08-09T12:45:33.671Z,0.10
2022-08-09T12:48:20.527Z,0.10
2022-08-09T12:53:37.008Z,0.10
2022-08-09T12:56:43.964Z,0.10
2022-08-09T12:59:14.028Z,0.10
2022-08-09T13:01:49.109Z,0.10
2022-08-09T13:04:27.545Z,0.10
2022-08-09T13:07:11.927Z,0.10
2022-08-09T13:09:40.782Z,0.10
2022-08-09T13:12:09.877Z,0.10
2022-08-09T13:14:44.316Z,0.10
2022-08-09T13:17:44.488Z,0.10
2022-08-09T13:20:18.710Z,0.10
2022-08-09T13:23:05.323Z,0.10
2022-08-09T13:25:54.628Z,0.10
2022-08-09T13:28:33.789Z,0.10
2022-08-09T13:32:14.249Z,0.10
2022-08-09T13:33:56.843Z,0.10
2022-08-09T13:36:41.667Z,0.10
2022-08-09T13:41:19.250Z,0.10
2022-08-09T13:42:13.891Z,0.10
2022-08-09T13:44:46.221Z,0.10
2022-08-09T13:47:33.626Z,0.10
2022-08-09T13:50:12.564Z,0.10
2022-08-09T13:52:47.661Z,0.10
2022-08-09T13:55:15.420Z,0.10
2022-08-09T13:57:55.904Z,0.10
2022-08-09T14:00:28.756Z,0.10
2022-08-09T14:05:58.390Z,0.10
2022-08-09T14:08:28.405Z,0.10
2022-08-09T14:10:56.082Z,0.10
2022-08-09T14:14:15.174Z,0.10
2022-08-09T14:16:14.707Z,0.10
2022-08-09T14:18:45.937Z,0.10
2022-08-09T14:21:22.680Z,0.10
2022-08-09T14:23:56.569Z,0.10
2022-08-09T14:26:32.165Z,0.10
2022-08-09T14:29:01.340Z,0.10
2022-08-09T14:31:49.791Z,0.10
2022-08-09T14:34:17.356Z,0.10
2022-08-09T14:36:44.175Z,0.10
2022-08-09T14:39:11.443Z,0.10
2022-08-09T14:41:41.638Z,0.10
2022-08-09T14:44:11.109Z,0.10
2022-08-09T14:47:03.269Z,0.10
2022-08-09T14:49:26.333Z,0.10
2022-08-09T14:51:58.225Z,0.10
2022-08-09T14:54:27.586Z,0.10
2022-08-09T14:56:58.962Z,0.10
2022-08-09T14:59:28.414Z,0.10
2022-08-09T15:01:55.950Z,0.10
2022-08-09T15:04:23.581Z,0.10
2022-08-09T15:06:51.317Z,0.10
2022-08-09T15:10:03.336Z,0.10
2022-08-09T15:12:07.799Z,0.10
2022-08-09T15:14:34.583Z,0.10
2022-08-09T15:17:07.695Z,0.10
2022-08-09T15:19:36.515Z,0.10
2022-08-09T15:22:03.628Z,0.10
2022-08-09T15:24:30.442Z,0.10
2022-08-09T15:26:57.687Z,0.10
2022-08-09T15:30:57.008Z,0.10
2022-08-09T15:32:29.389Z,0.10
2022-08-09T15:34:59.886Z,0.10
2022-08-09T15:37:36.889Z,0.10
2022-08-09T15:40:04.573Z,0.10
2022-08-09T15:42:39.930Z,0.10
2022-08-09T15:45:10.497Z,0.10
2022-08-09T15:47:51.932Z,0.00
2022-08-09T15:50:28.781Z,0.10
2022-08-09T15:53:06.168Z,0.10
2022-08-09T15:55:53.988Z,0.10
2022-08-09T15:58:26.696Z,0.10
2022-08-09T16:00:53.705Z,0.10
2022-08-09T16:03:29.459Z,0.10
2022-08-09T16:06:06.433Z,0.10
2022-08-09T16:08:33.620Z,0.10
2022-08-09T16:11:02.131Z,0.10
2022-08-09T16:14:04.238Z,0.00
2022-08-09T16:16:18.663Z,0.10
2022-08-09T16:18:46.045Z,0.10
2022-08-09T16:21:17.186Z,0.10
2022-08-09T16:23:55.506Z,0.10
2022-08-09T16:26:34.408Z,0.10
2022-08-09T16:29:15.728Z,0.05
2022-08-09T16:32:20.235Z,0.08
2022-08-09T16:34:54.520Z,0.05
2022-08-09T16:37:54.889Z,0.10
2022-08-09T16:40:12.641Z,0.10
2022-08-09T16:42:44.933Z,0.10
2022-08-09T16:45:14.011Z,0.10
2022-08-09T16:48:39.215Z,0.10
2022-08-09T16:50:33.750Z,0.10
2022-08-09T16:53:02.423Z,0.00
2022-08-09T16:55:44.160Z,0.10
2022-08-09T16:58:17.292Z,0.00
2022-08-09T17:00:46.508Z,0.05
2022-08-09T17:03:21.471Z,0.10
2022-08-09T17:06:06.739Z,0.10
2022-08-09T17:08:44.819Z,0.10
2022-08-09T17:11:24.417Z,0.10
2022-08-09T17:14:00.919Z,0.05
2022-08-09T17:16:28.626Z,0.03
2022-08-09T17:18:55.344Z,0.10
2022-08-09T17:21:21.933Z,0.10
2022-08-09T17:24:27.094Z,0.10
2022-08-09T17:26:38.314Z,0.10
2022-08-09T17:29:05.318Z,0.10
2022-08-09T17:31:44.636Z,0.10
2022-08-09T17:34:59.655Z,0.10
2022-08-09T17:37:02.274Z,0.10
2022-08-09T17:39:48.298Z,0.10
2022-08-09T17:42:40.994Z,0.10
2022-08-09T17:45:06.567Z,0.10
2022-08-09T17:47:49.268Z,0.10
2022-08-09T17:50:35.950Z,0.00
2022-08-09T17:53:04.837Z,0.10
2022-08-09T17:55:48.826Z,0.10
2022-08-09T17:58:19.001Z,0.00
2022-08-09T18:00:47.988Z,0.00
2022-08-09T18:03:15.208Z,0.10
2022-08-09T18:05:44.991Z,0.00
2022-08-09T18:08:19.442Z,0.10
2022-08-09T18:11:01.801Z,0.00
2022-08-09T18:13:38.746Z,0.00
2022-08-09T18:16:10.707Z,0.00
2022-08-09T18:18:43.306Z,0.05
2022-08-09T18:21:23.486Z,0.03
2022-08-09T18:24:10.481Z,0.10
2022-08-09T18:26:46.881Z,0.08
2022-08-09T18:30:42.421Z,0.10
2022-08-09T18:32:05.360Z,0.00
2022-08-09T18:34:35.249Z,0.10
2022-08-09T18:37:10.381Z,0.10
2022-08-09T18:39:53.013Z,0.10
2022-08-09T18:42:19.873Z,0.10
2022-08-09T18:44:48.030Z,0.00
2022-08-09T18:47:18.494Z,0.10
2022-08-09T18:49:47.352Z,0.10
2022-08-09T18:52:18.855Z,0.03
2022-08-09T18:54:52.482Z,0.10
2022-08-09T18:57:22.159Z,0.10
2022-08-09T18:59:56.485Z,0.10
2022-08-09T19:02:30.499Z,0.10
2022-08-09T19:05:04.135Z,0.00
2022-08-09T19:07:41.931Z,0.10
2022-08-09T19:10:26.493Z,0.00
2022-08-09T19:12:55.519Z,0.00
2022-08-09T19:15:28.841Z,0.00
2022-08-09T19:17:58.231Z,0.10
2022-08-09T19:20:26.346Z,0.05
2022-08-09T19:23:01.152Z,0.00
2022-08-09T19:25:41.963Z,0.08
2022-08-09T19:28:15.773Z,0.10
2022-08-09T19:30:44.443Z,0.10
2022-08-09T19:33:19.436Z,0.10
2022-08-09T19:35:56.931Z,0.00
2022-08-09T19:38:25.031Z,0.00
2022-08-09T19:40:51.737Z,0.00
2022-08-09T19:43:57.948Z,0.03
2022-08-09T19:46:08.542Z,0.10
2022-08-09T19:49:00.550Z,0.03
2022-08-09T19:51:30.990Z,0.00
2022-08-09T19:54:01.526Z,0.10
2022-08-09T19:56:29.495Z,0.10
2022-08-09T19:59:18.253Z,0.00
2022-08-09T20:02:03.228Z,0.10
2022-08-09T20:04:37.430Z,0.10
2022-08-09T20:07:12.428Z,0.00
2022-08-09T20:09:47.762Z,0.00
2022-08-09T20:12:27.066Z,0.10
2022-08-09T20:14:56.884Z,0.10
2022-08-09T20:17:23.468Z,0.10
2022-08-09T20:19:54.606Z,0.00
2022-08-09T20:22:21.587Z,0.00
2022-08-09T20:24:58.637Z,0.05
2022-08-09T20:27:29.122Z,0.00
2022-08-09T20:29:57.265Z,0.10
2022-08-09T20:32:30.153Z,0.00
2022-08-09T20:35:01.684Z,0.00
2022-08-09T20:38:19.490Z,0.00
2022-08-09T20:40:24.808Z,0.10
2022-08-09T20:43:17.995Z,0.00
2022-08-09T20:45:59.345Z,0.10
2022-08-09T20:48:32.107Z,0.10
2022-08-09T20:51:00.162Z,0.00
2022-08-09T20:53:37.567Z,0.05
2022-08-09T20:56:20.983Z,0.03
2022-08-09T20:58:54.192Z,0.10
2022-08-09T21:01:33.556Z,0.03
2022-08-09T21:05:53.039Z,0.00
2022-08-09T21:06:57.711Z,0.10
2022-08-09T21:09:32.895Z,0.10
2022-08-09T21:14:48.427Z,0.00
2022-08-09T21:18:23.813Z,0.00
2022-08-09T21:20:18.967Z,0.00
2022-08-09T21:22:52.746Z,0.00
2022-08-09T21:25:44.177Z,0.08
2022-08-09T21:28:34.089Z,0.00
2022-08-09T21:31:16.704Z,0.00
2022-08-09T21:33:52.080Z,0.00
2022-08-09T21:36:23.107Z,0.00
2022-08-09T21:38:57.705Z,0.00
2022-08-09T21:42:03.547Z,0.10
2022-08-09T21:44:15.495Z,0.08
2022-08-09T21:47:01.767Z,0.10
2022-08-09T21:49:28.483Z,0.10
2022-08-09T21:51:55.076Z,0.00
2022-08-09T21:54:21.689Z,0.08
2022-08-09T21:56:54.438Z,0.10
2022-08-09T21:59:23.492Z,0.00
2022-08-09T22:01:59.314Z,0.08
2022-08-09T22:04:54.975Z,0.00
2022-08-09T22:07:14.434Z,0.10
2022-08-09T22:10:00.739Z,0.10
2022-08-09T22:12:35.086Z,0.10
2022-08-09T22:15:06.938Z,0.10
2022-08-09T22:17:46.583Z,0.00
2022-08-09T22:20:16.994Z,0.10
2022-08-09T22:22:49.170Z,0.10
2022-08-09T22:26:08.493Z,0.00
2022-08-09T22:28:06.605Z,0.10
2022-08-09T22:30:34.076Z,0.00
2022-08-09T22:33:00.684Z,0.00
2022-08-09T22:36:00.763Z,0.10
2022-08-09T22:38:16.513Z,0.00
2022-08-09T22:40:49.324Z,0.03
2022-08-09T22:44:01.314Z,0.00
2022-08-09T22:48:17.098Z,0.10
2022-08-09T22:49:01.826Z,0.03
2022-08-09T22:51:38.102Z,0.03
2022-08-09T22:54:08.005Z,0.00
2022-08-09T22:56:37.608Z,0.10
2022-08-09T22:59:58.442Z,0.10
2022-08-09T23:01:54.679Z,0.10
2022-08-09T23:04:21.399Z,0.00
2022-08-09T23:07:11.267Z,0.10
2022-08-09T23:09:41.107Z,0.10
2022-08-09T23:12:08.310Z,0.10
2022-08-09T23:14:41.877Z,0.10
2022-08-09T23:17:09.591Z,0.05
2022-08-09T23:20:00.604Z,0.00
2022-08-09T23:22:23.010Z,0.10
2022-08-09T23:24:49.823Z,0.10
2022-08-09T23:27:16.426Z,0.00
2022-08-09T23:29:43.296Z,0.08
2022-08-09T23:32:09.998Z,0.10
2022-08-09T23:34:36.812Z,0.10
2022-08-09T23:37:05.002Z,0.10
2022-08-09T23:39:32.261Z,0.10
2022-08-09T23:41:59.120Z,0.10
2022-08-09T23:44:25.738Z,0.10
2022-08-09T23:46:52.854Z,0.00
2022-08-09T23:49:24.733Z,0.10
2022-08-09T23:51:52.580Z,0.10
2022-08-09T23:54:19.835Z,0.00
2022-08-09T23:56:54.731Z,0.10
2022-08-09T23:59:23.870Z,0.10
